Time,TemperatureF,DewpointF,PressureIn,WindDirection,WindDirectionDegrees,WindSpeedMPH,WindSpeedGustMPH,Humidity,HourlyPrecipIn,Conditions,Clouds,dailyrainin,SoftwareType,DateUTC
2013-01-24 00:05:00,9.2,-0.5,30.58,NNE,32,9.0,16.0,64,0.00,,,0.00,Wunderground v.1.15,2013-01-24 06:05:00,
2013-01-24 00:15:00,8.9,-0.5,30.57,NNE,32,10.0,14.0,65,0.00,,,0.00,Wunderground v.1.15,2013-01-24 06:15:00,
2013-01-24 00:20:00,8.7,-0.7,30.58,NE,36,9.0,9.0,65,0.00,,,0.00,Wunderground v.1.15,2013-01-24 06:20:00,
2013-01-24 00:25:00,8.6,-0.8,30.57,NNE,28,9.0,9.0,65,0.00,,,0.00,Wunderground v.1.15,2013-01-24 06:25:00,
2013-01-24 00:35:00,8.3,-0.7,30.58,NNE,21,8.0,11.0,66,0.00,,,0.00,Wunderground v.1.15,2013-01-24 06:35:00,
2013-01-24 00:45:00,7.9,-1.1,30.59,NE,51,7.0,8.0,66,0.00,,,0.00,Wunderground v.1.15,2013-01-24 06:45:00,
2013-01-24 00:55:00,7.4,-1.6,30.59,NNE,30,9.0,10.0,66,0.00,,,0.00,Wunderground v.1.15,2013-01-24 06:55:00,
2013-01-24 01:05:00,7.0,-2.0,30.60,ENE,58,9.0,10.0,66,0.00,,,0.00,Wunderground v.1.15,2013-01-24 07:05:00,
2013-01-24 01:15:00,6.6,-2.4,30.60,NE,49,8.0,9.0,66,0.00,,,0.00,Wunderground v.1.15,2013-01-24 07:15:00,
2013-01-24 01:20:00,6.2,-3.1,30.60,North,5,8.0,11.0,65,0.00,,,0.00,Wunderground v.1.15,2013-01-24 07:20:00,
2013-01-24 01:30:00,5.6,-4.0,30.60,NE,40,9.0,9.0,64,0.00,,,0.00,Wunderground v.1.15,2013-01-24 07:30:00,
2013-01-24 01:40:00,5.2,-4.0,30.61,NE,46,6.0,6.0,65,0.00,,,0.00,Wunderground v.1.15,2013-01-24 07:40:00,
2013-01-24 01:50:00,4.9,-4.3,30.61,NE,44,6.0,6.0,65,0.00,,,0.00,Wunderground v.1.15,2013-01-24 07:50:00,
2013-01-24 02:00:00,4.7,-4.5,30.61,NE,36,7.0,7.0,65,0.00,,,0.00,Wunderground v.1.15,2013-01-24 08:00:00,
2013-01-24 02:05:00,4.6,-4.6,30.62,NNE,28,8.0,8.0,65,0.00,,,0.00,Wunderground v.1.15,2013-01-24 08:05:00,
2013-01-24 02:15:00,4.5,-4.4,30.62,NNE,19,4.0,6.0,66,0.00,,,0.00,Wunderground v.1.15,2013-01-24 08:15:00,
2013-01-24 02:25:00,4.3,-4.6,30.62,ENE,61,6.0,6.0,66,0.00,,,0.00,Wunderground v.1.15,2013-01-24 08:25:00,
2013-01-24 02:35:00,4.1,-4.8,30.63,NNE,26,6.0,7.0,66,0.00,,,0.00,Wunderground v.1.15,2013-01-24 08:35:00,
2013-01-24 02:45:00,3.9,-4.9,30.62,NNE,17,6.0,7.0,66,0.00,,,0.00,Wunderground v.1.15,2013-01-24 08:45:00,
2013-01-24 02:55:00,3.7,-5.1,30.62,NE,34,8.0,8.0,66,0.00,,,0.00,Wunderground v.1.15,2013-01-24 08:55:00,
2013-01-24 03:05:00,3.2,-5.9,30.62,NNE,26,8.0,10.0,65,0.00,,,0.00,Wunderground v.1.15,2013-01-24 09:05:00,
2013-01-24 03:15:00,2.9,-6.2,30.63,NE,44,7.0,11.0,65,0.00,,,0.00,Wunderground v.1.15,2013-01-24 09:15:00,
2013-01-24 03:25:00,2.8,-6.3,30.63,North,11,5.0,6.0,65,0.00,,,0.00,Wunderground v.1.15,2013-01-24 09:25:00,
2013-01-24 03:35:00,2.7,-6.4,30.63,NE,55,5.0,7.0,65,0.00,,,0.00,Wunderground v.1.15,2013-01-24 09:35:00,
2013-01-24 03:45:00,2.7,-6.1,30.63,NNE,20,5.0,7.0,66,0.00,,,0.00,Wunderground v.1.15,2013-01-24 09:45:00,
2013-01-24 03:55:00,2.6,-6.2,30.62,ENE,73,5.0,6.0,66,0.00,,,0.00,Wunderground v.1.15,2013-01-24 09:55:00,
2013-01-24 04:05:00,2.5,-6.0,30.63,ENE,65,5.0,5.0,67,0.00,,,0.00,Wunderground v.1.15,2013-01-24 10:05:00,
2013-01-24 04:15:00,2.4,-6.1,30.62,ENE,69,4.0,8.0,67,0.00,,,0.00,Wunderground v.1.15,2013-01-24 10:15:00,
2013-01-24 04:25:00,2.3,-6.2,30.62,NE,45,6.0,7.0,67,0.00,,,0.00,Wunderground v.1.15,2013-01-24 10:25:00,
2013-01-24 04:35:00,2.2,-6.0,30.61,ENE,63,5.0,7.0,68,0.00,,,0.00,Wunderground v.1.15,2013-01-24 10:35:00,
2013-01-24 04:40:00,2.2,-6.0,30.61,NE,44,5.0,5.0,68,0.00,,,0.00,Wunderground v.1.15,2013-01-24 10:40:00,
2013-01-24 04:50:00,2.1,-6.0,30.60,NE,46,6.0,7.0,68,0.00,,,0.00,Wunderground v.1.15,2013-01-24 10:50:00,
2013-01-24 05:00:00,2.1,-6.0,30.61,NE,43,7.0,8.0,68,0.00,,,0.00,Wunderground v.1.15,2013-01-24 11:00:00,
2013-01-24 05:05:00,2.1,-5.7,30.60,ENE,59,7.0,8.0,69,0.00,,,0.00,Wunderground v.1.15,2013-01-24 11:05:00,
2013-01-24 05:15:00,2.0,-5.8,30.59,NE,46,9.0,9.0,69,0.00,,,0.00,Wunderground v.1.15,2013-01-24 11:15:00,
2013-01-24 05:20:00,2.0,-5.8,30.59,NE,56,8.0,8.0,69,0.00,,,0.00,Wunderground v.1.15,2013-01-24 11:20:00,
2013-01-24 05:30:00,1.9,-5.9,30.60,East,84,7.0,7.0,69,0.00,,,0.00,Wunderground v.1.15,2013-01-24 11:30:00,
2013-01-24 05:40:00,1.9,-6.2,30.59,NNE,27,6.0,6.0,68,0.00,,,0.00,Wunderground v.1.15,2013-01-24 11:40:00,
2013-01-24 05:50:00,1.8,-6.3,30.60,ENE,68,6.0,6.0,68,0.00,,,0.00,Wunderground v.1.15,2013-01-24 11:50:00,
2013-01-24 06:00:00,1.8,-6.0,30.59,ENE,69,6.0,9.0,69,0.00,,,0.00,Wunderground v.1.15,2013-01-24 12:00:00,
2013-01-24 06:05:00,1.8,-6.0,30.58,East,83,7.0,9.0,69,0.00,,,0.00,Wunderground v.1.15,2013-01-24 12:05:00,
2013-01-24 06:15:00,1.9,-5.9,30.59,ENE,76,6.0,7.0,69,0.00,,,0.00,Wunderground v.1.15,2013-01-24 12:15:00,
2013-01-24 06:20:00,1.9,-5.9,30.59,ENE,64,6.0,6.0,69,0.00,,,0.00,Wunderground v.1.15,2013-01-24 12:20:00,
2013-01-24 06:30:00,1.9,-5.9,30.59,East,90,5.0,6.0,69,0.00,,,0.00,Wunderground v.1.15,2013-01-24 12:30:00,
2013-01-24 06:35:00,1.9,-5.6,30.59,East,97,6.0,9.0,70,0.00,,,0.00,Wunderground v.1.15,2013-01-24 12:35:00,
2013-01-24 06:45:00,1.9,-5.6,30.59,NE,51,6.0,7.0,70,0.00,,,0.00,Wunderground v.1.15,2013-01-24 12:45:00,
2013-01-24 06:51:00,1.8,-5.7,30.60,ENE,67,5.0,7.0,70,0.00,,,0.00,Wunderground v.1.15,2013-01-24 12:51:00,
2013-01-24 06:56:00,1.8,-5.7,30.60,ENE,72,5.0,10.0,70,0.00,,,0.00,Wunderground v.1.15,2013-01-24 12:56:00,
2013-01-24 07:01:00,1.8,-5.7,30.61,ENE,74,5.0,9.0,70,0.00,,,0.00,Wunderground v.1.15,2013-01-24 13:01:00,
2013-01-24 07:06:00,1.8,-5.7,30.61,NE,53,6.0,12.0,70,0.00,,,0.00,Wunderground v.1.15,2013-01-24 13:06:00,
2013-01-24 07:11:00,1.8,-5.7,30.60,ENE,69,4.0,9.0,70,0.00,,,0.00,Wunderground v.1.15,2013-01-24 13:11:00,
2013-01-24 07:16:00,1.8,-5.7,30.60,East,85,8.0,10.0,70,0.00,,,0.00,Wunderground v.1.15,2013-01-24 13:16:00,
2013-01-24 07:21:00,1.8,-5.7,30.59,East,86,7.0,13.0,70,0.00,,,0.00,Wunderground v.1.15,2013-01-24 13:21:00,
2013-01-24 07:26:00,1.8,-5.7,30.59,ENE,71,10.0,13.0,70,0.00,,,0.00,Wunderground v.1.15,2013-01-24 13:26:00,
2013-01-24 07:31:00,1.8,-5.7,30.59,East,101,7.0,10.0,70,0.00,,,0.00,Wunderground v.1.15,2013-01-24 13:31:00,
2013-01-24 07:36:00,1.8,-5.7,30.60,ENE,72,10.0,14.0,70,0.00,,,0.00,Wunderground v.1.15,2013-01-24 13:36:00,
2013-01-24 07:41:00,1.8,-5.4,30.59,ENE,69,10.0,11.0,71,0.00,,,0.00,Wunderground v.1.15,2013-01-24 13:41:00,
2013-01-24 07:46:00,1.9,-5.3,30.60,ENE,72,7.0,14.0,71,0.00,,,0.00,Wunderground v.1.15,2013-01-24 13:46:00,
2013-01-24 07:51:00,1.9,-5.3,30.60,NE,55,7.0,11.0,71,0.00,,,0.00,Wunderground v.1.15,2013-01-24 13:51:00,
2013-01-24 07:56:00,1.9,-5.3,30.60,NE,50,4.0,13.0,71,0.00,,,0.00,Wunderground v.1.15,2013-01-24 13:56:00,
2013-01-24 08:01:00,2.0,-5.2,30.61,ENE,76,8.0,10.0,71,0.00,,,0.00,Wunderground v.1.15,2013-01-24 14:01:00,
2013-01-24 08:07:00,2.0,-5.2,30.61,ENE,66,8.0,12.0,71,0.00,,,0.00,Wunderground v.1.15,2013-01-24 14:07:00,
2013-01-24 08:12:00,2.1,-5.2,30.61,ENE,58,5.0,11.0,71,0.00,,,0.00,Wunderground v.1.15,2013-01-24 14:12:00,
2013-01-24 08:17:00,2.2,-5.1,30.61,East,82,9.0,11.0,71,0.00,,,0.00,Wunderground v.1.15,2013-01-24 14:17:00,
2013-01-24 08:23:00,2.3,-5.0,30.60,ENE,73,7.0,11.0,71,0.00,,,0.00,Wunderground v.1.15,2013-01-24 14:23:00,
2013-01-24 08:29:00,2.5,-4.5,30.59,ENE,75,4.0,11.0,72,0.00,,,0.00,Wunderground v.1.15,2013-01-24 14:29:00,
2013-01-24 08:34:00,2.8,-4.2,30.60,ESE,103,5.0,9.0,72,0.00,,,0.00,Wunderground v.1.15,2013-01-24 14:34:00,
2013-01-24 08:39:00,2.9,-4.4,30.60,East,88,2.0,14.0,71,0.00,,,0.00,Wunderground v.1.15,2013-01-24 14:39:00,
2013-01-24 08:44:00,3.3,-4.0,30.60,East,88,10.0,10.0,71,0.00,,,0.00,Wunderground v.1.15,2013-01-24 14:44:00,
2013-01-24 08:49:00,3.6,-3.7,30.61,ENE,70,7.0,10.0,71,0.00,,,0.00,Wunderground v.1.15,2013-01-24 14:49:00,
2013-01-24 08:54:00,3.7,-3.9,30.60,ESE,105,10.0,14.0,70,0.00,,,0.00,Wunderground v.1.15,2013-01-24 14:54:00,
2013-01-24 08:59:00,3.8,-3.8,30.60,East,91,5.0,14.0,70,0.00,,,0.00,Wunderground v.1.15,2013-01-24 14:59:00,
2013-01-24 09:04:00,4.2,-3.7,30.59,East,93,8.0,14.0,69,0.00,,,0.00,Wunderground v.1.15,2013-01-24 15:04:00,
2013-01-24 09:09:00,4.6,-3.3,30.59,East,92,8.0,15.0,69,0.00,,,0.00,Wunderground v.1.15,2013-01-24 15:09:00,
2013-01-24 09:14:00,5.4,-2.6,30.59,East,87,9.0,15.0,69,0.00,,,0.00,Wunderground v.1.15,2013-01-24 15:14:00,
2013-01-24 09:19:00,6.0,-2.0,30.59,East,96,14.0,16.0,69,0.00,,,0.00,Wunderground v.1.15,2013-01-24 15:19:00,
2013-01-24 09:24:00,6.0,-2.6,30.60,East,96,5.0,16.0,67,0.00,,,0.00,Wunderground v.1.15,2013-01-24 15:24:00,
2013-01-24 09:29:00,5.9,-3.0,30.60,East,97,11.0,16.0,66,0.00,,,0.00,Wunderground v.1.15,2013-01-24 15:29:00,
2013-01-24 09:34:00,6.0,-2.6,30.60,ENE,77,7.0,14.0,67,0.00,,,0.00,Wunderground v.1.15,2013-01-24 15:34:00,
2013-01-24 09:39:00,6.0,-2.9,30.60,ESE,115,8.0,14.0,66,0.00,,,0.00,Wunderground v.1.15,2013-01-24 15:39:00,
2013-01-24 09:44:00,6.0,-2.9,30.59,ESE,106,7.0,12.0,66,0.00,,,0.00,Wunderground v.1.15,2013-01-24 15:44:00,
2013-01-24 09:49:00,6.1,-2.5,30.59,East,82,8.0,13.0,67,0.00,,,0.00,Wunderground v.1.15,2013-01-24 15:49:00,
2013-01-24 09:55:00,6.0,-2.9,30.59,East,91,3.0,14.0,66,0.00,,,0.00,Wunderground v.1.15,2013-01-24 15:55:00,
2013-01-24 10:00:00,5.9,-3.0,30.60,ESE,119,7.0,8.0,66,0.00,,,0.00,Wunderground v.1.15,2013-01-24 16:00:00,
2013-01-24 10:05:00,6.4,-2.2,30.60,ESE,111,5.0,9.0,67,0.00,,,0.00,Wunderground v.1.15,2013-01-24 16:05:00,
2013-01-24 10:10:00,6.8,-1.5,30.59,East,86,5.0,5.0,68,0.00,,,0.00,Wunderground v.1.15,2013-01-24 16:10:00,
2013-01-24 10:15:00,6.8,-2.2,30.60,East,91,1.0,11.0,66,0.00,,,0.00,Wunderground v.1.15,2013-01-24 16:15:00,
2013-01-24 10:20:00,7.2,-1.5,30.61,East,91,5.0,8.0,67,0.00,,,0.00,Wunderground v.1.15,2013-01-24 16:20:00,
2013-01-24 10:25:00,7.6,-1.1,30.60,ESE,108,7.0,10.0,67,0.00,,,0.00,Wunderground v.1.15,2013-01-24 16:25:00,
2013-01-24 10:30:00,7.4,-1.9,30.59,East,94,7.0,10.0,65,0.00,,,0.00,Wunderground v.1.15,2013-01-24 16:30:00,
2013-01-24 10:35:00,7.5,-1.5,30.59,ESE,111,8.0,10.0,66,0.00,,,0.00,Wunderground v.1.15,2013-01-24 16:35:00,
2013-01-24 10:40:00,7.7,-1.3,30.59,SSE,153,7.0,11.0,66,0.00,,,0.00,Wunderground v.1.15,2013-01-24 16:40:00,
2013-01-24 10:45:00,8.2,-0.8,30.59,East,98,2.0,11.0,66,0.00,,,0.00,Wunderground v.1.15,2013-01-24 16:45:00,
2013-01-24 10:50:00,8.5,-0.5,30.59,ESE,110,8.0,8.0,66,0.00,,,0.00,Wunderground v.1.15,2013-01-24 16:50:00,
2013-01-24 10:56:00,8.3,-1.4,30.58,ESE,113,2.0,11.0,64,0.00,,,0.00,Wunderground v.1.15,2013-01-24 16:56:00,
2013-01-24 11:01:00,8.6,-0.8,30.57,ESE,116,7.0,9.0,65,0.00,,,0.00,Wunderground v.1.15,2013-01-24 17:01:00,
2013-01-24 11:06:00,9.1,-0.3,30.58,SE,134,6.0,9.0,65,0.00,,,0.00,Wunderground v.1.15,2013-01-24 17:06:00,
2013-01-24 11:11:00,9.3,-0.4,30.58,SE,130,6.0,9.0,64,0.00,,,0.00,Wunderground v.1.15,2013-01-24 17:11:00,
2013-01-24 11:16:00,9.6,0.2,30.58,ESE,107,4.0,12.0,65,0.00,,,0.00,Wunderground v.1.15,2013-01-24 17:16:00,
2013-01-24 11:21:00,9.8,0.0,30.57,ESE,119,8.0,9.0,64,0.00,,,0.00,Wunderground v.1.15,2013-01-24 17:21:00,
2013-01-24 11:26:00,9.4,-0.7,30.57,SE,134,6.0,9.0,63,0.00,,,0.00,Wunderground v.1.15,2013-01-24 17:26:00,
2013-01-24 11:31:00,10.0,-0.1,30.57,SE,136,5.0,9.0,63,0.00,,,0.00,Wunderground v.1.15,2013-01-24 17:31:00,
2013-01-24 11:36:00,10.2,-0.2,30.56,SSE,155,4.0,10.0,62,0.00,,,0.00,Wunderground v.1.15,2013-01-24 17:36:00,
2013-01-24 11:41:00,10.0,-0.4,30.55,SE,141,6.0,7.0,62,0.00,,,0.00,Wunderground v.1.15,2013-01-24 17:41:00,
2013-01-24 11:46:00,10.2,-0.2,30.56,SE,126,3.0,7.0,62,0.00,,,0.00,Wunderground v.1.15,2013-01-24 17:46:00,
2013-01-24 11:51:00,10.4,-0.1,30.55,ESE,115,9.0,10.0,62,0.00,,,0.00,Wunderground v.1.15,2013-01-24 17:51:00,
2013-01-24 11:56:00,10.7,0.6,30.55,SSE,160,5.0,10.0,63,0.00,,,0.00,Wunderground v.1.15,2013-01-24 17:56:00,
2013-01-24 12:01:00,11.2,1.0,30.54,SE,130,8.0,11.0,63,0.00,,,0.00,Wunderground v.1.15,2013-01-24 18:01:00,
2013-01-24 12:06:00,11.4,0.9,30.53,SSE,153,3.0,11.0,62,0.00,,,0.00,Wunderground v.1.15,2013-01-24 18:06:00,
2013-01-24 12:11:00,11.6,1.1,30.53,SE,128,4.0,8.0,62,0.00,,,0.00,Wunderground v.1.15,2013-01-24 18:11:00,
2013-01-24 12:16:00,11.9,1.4,30.51,SE,128,9.0,11.0,62,0.00,,,0.00,Wunderground v.1.15,2013-01-24 18:16:00,
2013-01-24 12:22:00,12.1,1.2,30.51,ESE,122,3.0,10.0,61,0.00,,,0.00,Wunderground v.1.15,2013-01-24 18:22:00,
2013-01-24 12:27:00,12.4,1.8,30.51,ESE,111,7.0,10.0,62,0.00,,,0.00,Wunderground v.1.15,2013-01-24 18:27:00,
2013-01-24 12:32:00,12.4,1.8,30.49,SE,126,6.0,9.0,62,0.00,,,0.00,Wunderground v.1.15,2013-01-24 18:32:00,
2013-01-24 12:37:00,12.9,2.3,30.49,ESE,108,8.0,12.0,62,0.00,,,0.00,Wunderground v.1.15,2013-01-24 18:37:00,
2013-01-24 12:42:00,13.4,2.8,30.49,SSE,153,9.0,10.0,62,0.00,,,0.00,Wunderground v.1.15,2013-01-24 18:42:00,
2013-01-24 12:47:00,13.6,2.3,30.48,ESE,121,3.0,10.0,60,0.00,,,0.00,Wunderground v.1.15,2013-01-24 18:47:00,
2013-01-24 12:52:00,13.2,1.5,30.48,ESE,120,4.0,9.0,59,0.00,,,0.00,Wunderground v.1.15,2013-01-24 18:52:00,
2013-01-24 12:57:00,13.3,2.0,30.47,ESE,121,4.0,10.0,60,0.00,,,0.00,Wunderground v.1.15,2013-01-24 18:57:00,
2013-01-24 13:02:00,13.3,2.0,30.46,SE,130,8.0,8.0,60,0.00,,,0.00,Wunderground v.1.15,2013-01-24 19:02:00,
2013-01-24 13:07:00,13.1,1.4,30.46,ESE,103,10.0,11.0,59,0.00,,,0.00,Wunderground v.1.15,2013-01-24 19:07:00,
2013-01-24 13:12:00,13.4,2.1,30.45,ESE,123,7.0,9.0,60,0.00,,,0.00,Wunderground v.1.15,2013-01-24 19:12:00,
2013-01-24 13:17:00,13.8,2.1,30.46,SE,142,7.0,14.0,59,0.00,,,0.00,Wunderground v.1.15,2013-01-24 19:17:00,
2013-01-24 13:22:00,14.4,2.3,30.47,SE,127,8.0,11.0,58,0.00,,,0.00,Wunderground v.1.15,2013-01-24 19:22:00,
2013-01-24 13:27:00,14.6,2.5,30.46,SSE,152,10.0,14.0,58,0.00,,,0.00,Wunderground v.1.15,2013-01-24 19:27:00,
2013-01-24 13:32:00,15.2,3.1,30.46,ESE,108,5.0,7.0,58,0.00,,,0.00,Wunderground v.1.15,2013-01-24 19:32:00,
2013-01-24 13:37:00,15.1,2.2,30.45,SE,143,12.0,13.0,56,0.00,,,0.00,Wunderground v.1.15,2013-01-24 19:37:00,
2013-01-24 13:42:00,15.1,2.2,30.45,SE,124,6.0,7.0,56,0.00,,,0.00,Wunderground v.1.15,2013-01-24 19:42:00,
2013-01-24 13:47:00,15.3,2.8,30.45,SE,136,4.0,9.0,57,0.00,,,0.00,Wunderground v.1.15,2013-01-24 19:47:00,
2013-01-24 13:52:00,15.2,2.7,30.44,ESE,115,8.0,13.0,57,0.00,,,0.00,Wunderground v.1.15,2013-01-24 19:52:00,
2013-01-24 13:57:00,15.2,2.7,30.43,SE,127,9.0,13.0,57,0.00,,,0.00,Wunderground v.1.15,2013-01-24 19:57:00,
2013-01-24 14:02:00,15.5,3.0,30.43,ESE,117,5.0,11.0,57,0.00,,,0.00,Wunderground v.1.15,2013-01-24 20:02:00,
2013-01-24 14:07:00,15.8,2.5,30.43,SE,130,3.0,11.0,55,0.00,,,0.00,Wunderground v.1.15,2013-01-24 20:07:00,
2013-01-24 14:13:00,15.6,2.3,30.42,SE,134,5.0,9.0,55,0.00,,,0.00,Wunderground v.1.15,2013-01-24 20:13:00,
2013-01-24 14:19:00,15.5,2.6,30.41,ESE,105,5.0,12.0,56,0.00,,,0.00,Wunderground v.1.15,2013-01-24 20:19:00,
2013-01-24 14:24:00,15.4,2.9,30.41,SE,125,5.0,11.0,57,0.00,,,0.00,Wunderground v.1.15,2013-01-24 20:24:00,
2013-01-24 14:29:00,15.4,2.5,30.40,SE,135,6.0,11.0,56,0.00,,,0.00,Wunderground v.1.15,2013-01-24 20:29:00,
2013-01-24 14:34:00,15.5,2.6,30.41,SE,144,4.0,7.0,56,0.00,,,0.00,Wunderground v.1.15,2013-01-24 20:34:00,
2013-01-24 14:39:00,15.7,2.8,30.40,SE,124,5.0,13.0,56,0.00,,,0.00,Wunderground v.1.15,2013-01-24 20:39:00,
2013-01-24 14:44:00,15.8,2.9,30.40,ESE,117,5.0,10.0,56,0.00,,,0.00,Wunderground v.1.15,2013-01-24 20:44:00,
2013-01-24 14:49:00,16.0,3.0,30.39,SE,136,9.0,12.0,56,0.00,,,0.00,Wunderground v.1.15,2013-01-24 20:49:00,
2013-01-24 14:54:00,16.1,2.7,30.39,SE,127,7.0,10.0,55,0.00,,,0.00,Wunderground v.1.15,2013-01-24 20:54:00,
2013-01-24 14:59:00,16.0,2.3,30.39,SE,130,9.0,13.0,54,0.00,,,0.00,Wunderground v.1.15,2013-01-24 20:59:00,
2013-01-24 15:04:00,16.0,2.7,30.38,SE,141,8.0,10.0,55,0.00,,,0.00,Wunderground v.1.15,2013-01-24 21:04:00,
2013-01-24 15:09:00,16.1,3.1,30.38,ESE,113,2.0,10.0,56,0.00,,,0.00,Wunderground v.1.15,2013-01-24 21:09:00,
2013-01-24 15:14:00,16.1,3.1,30.37,SE,130,2.0,10.0,56,0.00,,,0.00,Wunderground v.1.15,2013-01-24 21:14:00,
2013-01-24 15:19:00,16.1,3.1,30.37,SE,139,4.0,10.0,56,0.00,,,0.00,Wunderground v.1.15,2013-01-24 21:19:00,
2013-01-24 15:24:00,16.2,3.2,30.37,ESE,121,7.0,10.0,56,0.00,,,0.00,Wunderground v.1.15,2013-01-24 21:24:00,
2013-01-24 15:29:00,16.3,3.3,30.37,ESE,108,9.0,10.0,56,0.00,,,0.00,Wunderground v.1.15,2013-01-24 21:29:00,
2013-01-24 15:34:00,16.2,3.2,30.37,ESE,113,3.0,16.0,56,0.00,,,0.00,Wunderground v.1.15,2013-01-24 21:34:00,
2013-01-24 15:39:00,16.2,3.2,30.36,ESE,103,7.0,16.0,56,0.00,,,0.00,Wunderground v.1.15,2013-01-24 21:39:00,
2013-01-24 15:44:00,16.2,3.2,30.36,East,86,7.0,12.0,56,0.00,,,0.00,Wunderground v.1.15,2013-01-24 21:44:00,
2013-01-24 15:49:00,16.2,3.2,30.35,SSE,151,6.0,12.0,56,0.00,,,0.00,Wunderground v.1.15,2013-01-24 21:49:00,
2013-01-24 15:54:00,16.2,3.2,30.35,SE,125,5.0,13.0,56,0.00,,,0.00,Wunderground v.1.15,2013-01-24 21:54:00,
2013-01-24 15:59:00,16.3,3.3,30.35,SSE,150,6.0,13.0,56,0.00,,,0.00,Wunderground v.1.15,2013-01-24 21:59:00,
2013-01-24 16:04:00,16.4,3.4,30.35,SE,139,9.0,11.0,56,0.00,,,0.00,Wunderground v.1.15,2013-01-24 22:04:00,
2013-01-24 16:09:00,16.5,3.1,30.35,SE,125,8.0,14.0,55,0.00,,,0.00,Wunderground v.1.15,2013-01-24 22:09:00,
2013-01-24 16:14:00,16.6,3.2,30.35,SE,128,10.0,15.0,55,0.00,,,0.00,Wunderground v.1.15,2013-01-24 22:14:00,
2013-01-24 16:19:00,16.5,3.1,30.35,ESE,118,10.0,15.0,55,0.00,,,0.00,Wunderground v.1.15,2013-01-24 22:19:00,
2013-01-24 16:24:00,16.5,3.1,30.35,SE,124,9.0,14.0,55,0.00,,,0.00,Wunderground v.1.15,2013-01-24 22:24:00,
2013-01-24 16:29:00,16.6,3.2,30.35,ESE,121,5.0,14.0,55,0.00,,,0.00,Wunderground v.1.15,2013-01-24 22:29:00,
2013-01-24 16:34:00,16.7,3.3,30.35,ESE,111,7.0,11.0,55,0.00,,,0.00,Wunderground v.1.15,2013-01-24 22:34:00,
2013-01-24 16:39:00,16.6,3.2,30.35,ESE,123,7.0,13.0,55,0.00,,,0.00,Wunderground v.1.15,2013-01-24 22:39:00,
2013-01-24 16:44:00,16.7,3.3,30.35,ESE,121,4.0,12.0,55,0.00,,,0.00,Wunderground v.1.15,2013-01-24 22:44:00,
2013-01-24 16:50:00,16.7,3.7,30.33,SE,128,7.0,7.0,56,0.00,,,0.00,Wunderground v.1.15,2013-01-24 22:50:00,
2013-01-24 16:55:00,16.7,3.3,30.34,SSE,148,7.0,10.0,55,0.00,,,0.00,Wunderground v.1.15,2013-01-24 22:55:00,
2013-01-24 17:00:00,16.8,3.8,30.33,SE,146,4.0,7.0,56,0.00,,,0.00,Wunderground v.1.15,2013-01-24 23:00:00,
2013-01-24 17:05:00,16.8,3.4,30.33,SE,144,7.0,10.0,55,0.00,,,0.00,Wunderground v.1.15,2013-01-24 23:05:00,
2013-01-24 17:10:00,16.8,3.4,30.33,SSE,147,10.0,10.0,55,0.00,,,0.00,Wunderground v.1.15,2013-01-24 23:10:00,
2013-01-24 17:15:00,16.8,3.4,30.33,SSE,163,7.0,10.0,55,0.00,,,0.00,Wunderground v.1.15,2013-01-24 23:15:00,
2013-01-24 17:20:00,16.9,3.5,30.33,SE,143,11.0,15.0,55,0.00,,,0.00,Wunderground v.1.15,2013-01-24 23:20:00,
2013-01-24 17:25:00,16.9,3.5,30.32,SE,124,2.0,15.0,55,0.00,,,0.00,Wunderground v.1.15,2013-01-24 23:25:00,
2013-01-24 17:30:00,16.9,3.9,30.32,SE,135,6.0,12.0,56,0.00,,,0.00,Wunderground v.1.15,2013-01-24 23:30:00,
2013-01-24 17:35:00,16.8,3.4,30.31,ESE,117,8.0,13.0,55,0.00,,,0.00,Wunderground v.1.15,2013-01-24 23:35:00,
2013-01-24 17:40:00,16.8,3.4,30.31,ESE,120,8.0,11.0,55,0.00,,,0.00,Wunderground v.1.15,2013-01-24 23:40:00,
2013-01-24 17:45:00,16.8,3.4,30.31,SE,137,8.0,16.0,55,0.00,,,0.00,Wunderground v.1.15,2013-01-24 23:45:00,
2013-01-24 17:50:00,16.8,3.4,30.31,SE,133,5.0,8.0,55,0.00,,,0.00,Wunderground v.1.15,2013-01-24 23:50:00,
2013-01-24 18:08:00,16.9,3.9,30.30,ESE,121,10.0,10.0,56,0.00,,,0.00,Wunderground v.1.15,2013-01-25 00:08:00,
2013-01-24 18:13:00,16.9,3.9,30.30,SE,127,14.0,17.0,56,0.00,,,0.00,Wunderground v.1.15,2013-01-25 00:13:00,
2013-01-24 18:19:00,16.9,3.5,30.29,SE,129,5.0,17.0,55,0.00,,,0.00,Wunderground v.1.15,2013-01-25 00:19:00,
2013-01-24 18:24:00,16.9,3.5,30.29,SE,126,12.0,13.0,55,0.00,,,0.00,Wunderground v.1.15,2013-01-25 00:24:00,
2013-01-24 18:29:00,16.8,3.4,30.29,SSE,150,7.0,19.0,55,0.00,,,0.00,Wunderground v.1.15,2013-01-25 00:29:00,
2013-01-24 18:34:00,16.9,3.5,30.29,ESE,111,7.0,11.0,55,0.00,,,0.00,Wunderground v.1.15,2013-01-25 00:34:00,
2013-01-24 18:40:00,16.9,3.5,30.30,SE,134,10.0,10.0,55,0.00,,,0.00,Wunderground v.1.15,2013-01-25 00:40:00,
2013-01-24 18:45:00,17.0,3.6,30.29,SE,139,12.0,16.0,55,0.00,,,0.00,Wunderground v.1.15,2013-01-25 00:45:00,
2013-01-24 18:51:00,17.0,3.6,30.29,SE,134,8.0,9.0,55,0.00,,,0.00,Wunderground v.1.15,2013-01-25 00:51:00,
2013-01-24 18:56:00,17.1,4.1,30.30,ESE,106,10.0,13.0,56,0.00,,,0.00,Wunderground v.1.15,2013-01-25 00:56:00,
2013-01-24 19:01:00,17.1,4.1,30.30,SE,130,13.0,13.0,56,0.00,,,0.00,Wunderground v.1.15,2013-01-25 01:01:00,
2013-01-24 19:07:00,17.2,4.2,30.30,SE,130,11.0,14.0,56,0.00,,,0.00,Wunderground v.1.15,2013-01-25 01:07:00,
2013-01-24 19:12:00,17.2,4.2,30.30,ESE,112,5.0,9.0,56,0.00,,,0.00,Wunderground v.1.15,2013-01-25 01:12:00,
2013-01-24 19:17:00,17.2,4.2,30.30,SE,138,11.0,11.0,56,0.00,,,0.00,Wunderground v.1.15,2013-01-25 01:17:00,
2013-01-24 19:23:00,17.3,4.3,30.30,SE,133,3.0,12.0,56,0.00,,,0.00,Wunderground v.1.15,2013-01-25 01:23:00,
2013-01-24 19:28:00,17.3,4.7,30.31,SE,139,7.0,13.0,57,0.00,,,0.00,Wunderground v.1.15,2013-01-25 01:28:00,
2013-01-24 19:33:00,17.4,4.4,30.30,SE,133,4.0,8.0,56,0.00,,,0.00,Wunderground v.1.15,2013-01-25 01:33:00,
2013-01-24 19:38:00,17.4,4.4,30.30,SE,146,5.0,11.0,56,0.00,,,0.00,Wunderground v.1.15,2013-01-25 01:38:00,
2013-01-24 19:44:00,17.5,4.8,30.30,South,169,7.0,12.0,57,0.00,,,0.00,Wunderground v.1.15,2013-01-25 01:44:00,
2013-01-24 19:49:00,17.5,4.8,30.30,SSE,152,7.0,12.0,57,0.00,,,0.00,Wunderground v.1.15,2013-01-25 01:49:00,
2013-01-24 19:55:00,17.6,4.9,30.31,SE,142,8.0,8.0,57,0.00,,,0.00,Wunderground v.1.15,2013-01-25 01:55:00,
2013-01-24 20:01:00,17.6,4.9,30.28,SE,146,7.0,7.0,57,0.00,,,0.00,Wunderground v.1.15,2013-01-25 02:01:00,
2013-01-24 20:15:00,17.6,4.5,30.27,SE,146,5.0,5.0,56,0.00,,,0.00,Wunderground v.1.15,2013-01-25 02:15:00,
2013-01-24 20:20:00,17.6,4.9,30.28,SE,145,6.0,6.0,57,0.00,,,0.00,Wunderground v.1.15,2013-01-25 02:20:00,
2013-01-24 20:25:00,17.7,5.0,30.29,SSE,157,6.0,6.0,57,0.00,,,0.00,Wunderground v.1.15,2013-01-25 02:25:00,
2013-01-24 20:35:00,17.7,5.0,30.28,SE,137,6.0,10.0,57,0.00,,,0.00,Wunderground v.1.15,2013-01-25 02:35:00,
2013-01-24 20:45:00,17.7,5.0,30.27,ESE,117,8.0,8.0,57,0.00,,,0.00,Wunderground v.1.15,2013-01-25 02:45:00,
2013-01-24 20:50:00,17.7,5.0,30.28,SE,139,7.0,8.0,57,0.00,,,0.00,Wunderground v.1.15,2013-01-25 02:50:00,
2013-01-24 21:00:00,17.8,5.5,30.28,SSE,149,5.0,5.0,58,0.00,,,0.00,Wunderground v.1.15,2013-01-25 03:00:00,
2013-01-24 21:05:00,17.8,5.5,30.29,SE,126,4.0,6.0,58,0.00,,,0.00,Wunderground v.1.15,2013-01-25 03:05:00,
2013-01-24 21:15:00,17.9,5.6,30.29,SE,136,4.0,4.0,58,0.00,,,0.00,Wunderground v.1.15,2013-01-25 03:15:00,
2013-01-24 21:25:00,18.0,5.7,30.28,SSE,150,5.0,7.0,58,0.00,,,0.00,Wunderground v.1.15,2013-01-25 03:25:00,
2013-01-24 21:30:00,18.0,5.7,30.29,SE,143,4.0,4.0,58,0.00,,,0.00,Wunderground v.1.15,2013-01-25 03:30:00,
2013-01-24 21:40:00,18.1,6.2,30.31,SE,146,4.0,4.0,59,0.00,,,0.00,Wunderground v.1.15,2013-01-25 03:40:00,
2013-01-24 21:45:00,18.1,6.2,30.31,SSE,155,3.0,4.0,59,0.00,,,0.00,Wunderground v.1.15,2013-01-25 03:45:00,
2013-01-24 21:50:00,18.2,6.3,30.31,SE,141,3.0,3.0,59,0.00,,,0.00,Wunderground v.1.15,2013-01-25 03:50:00,
2013-01-24 21:55:00,18.2,6.3,30.31,SE,143,3.0,3.0,59,0.00,,,0.00,Wunderground v.1.15,2013-01-25 03:55:00,
2013-01-24 22:00:00,18.3,6.4,30.30,SE,144,2.0,2.0,59,0.00,,,0.00,Wunderground v.1.15,2013-01-25 04:00:00,
2013-01-24 22:05:00,18.3,6.4,30.30,South,169,2.0,5.0,59,0.00,,,0.00,Wunderground v.1.15,2013-01-25 04:05:00,
2013-01-24 22:15:00,18.4,6.4,30.31,South,173,3.0,7.0,59,0.00,,,0.00,Wunderground v.1.15,2013-01-25 04:15:00,
2013-01-24 22:20:00,18.4,6.4,30.31,South,172,3.0,3.0,59,0.00,,,0.00,Wunderground v.1.15,2013-01-25 04:20:00,
2013-01-24 22:25:00,18.4,6.4,30.31,South,173,2.0,3.0,59,0.00,,,0.00,Wunderground v.1.15,2013-01-25 04:25:00,
2013-01-24 22:30:00,18.5,6.9,30.31,SSE,167,3.0,3.0,60,0.00,,,0.00,Wunderground v.1.15,2013-01-25 04:30:00,
2013-01-24 22:35:00,18.5,6.9,30.30,SSE,148,4.0,4.0,60,0.00,,,0.00,Wunderground v.1.15,2013-01-25 04:35:00,
2013-01-24 22:40:00,18.6,7.0,30.29,SSE,160,3.0,4.0,60,0.00,,,0.00,Wunderground v.1.15,2013-01-25 04:40:00,
2013-01-24 22:45:00,18.6,7.0,30.29,SSE,161,3.0,4.0,60,0.00,,,0.00,Wunderground v.1.15,2013-01-25 04:45:00,
2013-01-24 22:50:00,18.6,7.0,30.28,SSE,154,4.0,6.0,60,0.00,,,0.00,Wunderground v.1.15,2013-01-25 04:50:00,
2013-01-24 22:55:00,18.6,7.0,30.28,SSE,155,3.0,6.0,60,0.00,,,0.00,Wunderground v.1.15,2013-01-25 04:55:00,
2013-01-24 23:00:00,18.6,7.0,30.28,SSE,159,3.0,3.0,60,0.00,,,0.00,Wunderground v.1.15,2013-01-25 05:00:00,
2013-01-24 23:05:00,18.6,7.0,30.28,SSE,155,3.0,3.0,60,0.00,,,0.00,Wunderground v.1.15,2013-01-25 05:05:00,
2013-01-24 23:10:00,18.7,7.1,30.28,SE,144,3.0,7.0,60,0.00,,,0.00,Wunderground v.1.15,2013-01-25 05:10:00,
2013-01-24 23:15:00,18.7,7.1,30.28,South,169,4.0,7.0,60,0.00,,,0.00,Wunderground v.1.15,2013-01-25 05:15:00,
2013-01-24 23:20:00,18.7,7.1,30.28,South,169,3.0,3.0,60,0.00,,,0.00,Wunderground v.1.15,2013-01-25 05:20:00,
2013-01-24 23:25:00,18.6,7.0,30.29,South,184,2.0,6.0,60,0.00,,,0.00,Wunderground v.1.15,2013-01-25 05:25:00,
2013-01-24 23:30:00,18.6,7.0,30.28,South,184,2.0,3.0,60,0.00,,,0.00,Wunderground v.1.15,2013-01-25 05:30:00,
2013-01-24 23:35:00,18.6,7.0,30.28,South,182,2.0,3.0,60,0.00,,,0.00,Wunderground v.1.15,2013-01-25 05:35:00,
2013-01-24 23:40:00,18.6,7.0,30.29,South,182,1.0,2.0,60,0.00,,,0.00,Wunderground v.1.15,2013-01-25 05:40:00,
2013-01-24 23:45:00,18.6,7.0,30.29,South,183,2.0,2.0,60,0.00,,,0.00,Wunderground v.1.15,2013-01-25 05:45:00,
2013-01-24 23:50:00,18.6,7.0,30.29,South,183,2.0,2.0,60,0.00,,,0.00,Wunderground v.1.15,2013-01-25 05:50:00,
2013-01-24 23:55:00,18.6,7.0,30.28,South,184,1.0,2.0,60,0.00,,,0.00,Wunderground v.1.15,2013-01-25 05:55:00,